TimeCST,TemperatureF,Dew PointF,Humidity,Sea Level PressureIn,VisibilityMPH,Wind Direction,Wind SpeedMPH,Gust SpeedMPH,PrecipitationIn,Events,Conditions,WindDirDegrees,DateUTC
12:25 AM,37.4,35.6,93,30.21,-9999.0,NW,5.8,-,N/A,,Overcast,320,2013-01-14 06:25:00
12:56 AM,37.9,36.9,96,30.24,-9999.0,NW,5.8,-,N/A,,Overcast,310,2013-01-14 06:56:00
1:22 AM,37.4,35.6,93,30.23,-9999.0,NW,8.1,-,N/A,,Overcast,310,2013-01-14 07:22:00
1:36 AM,37.4,37.4,100,30.23,-9999.0,NW,6.9,-,N/A,,Overcast,320,2013-01-14 07:36:00
1:56 AM,37.9,36.9,96,30.26,-9999.0,NW,4.6,-,N/A,,Overcast,320,2013-01-14 07:56:00
2:25 AM,37.4,37.4,100,30.24,-9999.0,NW,6.9,-,N/A,,Overcast,320,2013-01-14 08:25:00
2:56 AM,36.9,36.0,97,30.26,-9999.0,NNW,5.8,-,N/A,,Overcast,330,2013-01-14 08:56:00
3:56 AM,36.0,34.9,96,30.27,-9999.0,NNW,8.1,-,N/A,,Overcast,340,2013-01-14 09:56:00
4:56 AM,36.0,34.0,93,30.26,-9999.0,North,8.1,-,N/A,,Overcast,350,2013-01-14 10:56:00
6:13 AM,35.6,33.8,93,30.27,-9999.0,North,10.4,-,N/A,,Overcast,350,2013-01-14 12:13:00
6:56 AM,34.9,32.9,92,30.33,-9999.0,North,10.4,-,N/A,,Overcast,350,2013-01-14 12:56:00
7:56 AM,32.9,32.0,96,30.37,-9999.0,North,8.1,-,N/A,,Overcast,360,2013-01-14 13:56:00
8:08 AM,33.8,32.0,93,30.33,-9999.0,North,10.4,-,N/A,,Overcast,360,2013-01-14 14:08:00
8:56 AM,32.9,31.1,93,30.37,-9999.0,North,8.1,-,N/A,,Overcast,10,2013-01-14 14:56:00
9:56 AM,34.0,31.1,89,30.35,-9999.0,NNE,11.5,-,N/A,,Overcast,20,2013-01-14 15:56:00
10:32 AM,35.6,30.2,81,30.27,-9999.0,NNE,10.4,-,N/A,,Overcast,20,2013-01-14 16:32:00
10:56 AM,34.9,31.1,86,30.30,-9999.0,North,11.5,-,N/A,,Overcast,10,2013-01-14 16:56:00
11:56 AM,34.9,31.1,86,30.29,-9999.0,NNE,9.2,-,N/A,,Overcast,20,2013-01-14 17:56:00
1:56 PM,32.9,29.1,86,30.27,-9999.0,NNE,9.2,-,N/A,,Overcast,20,2013-01-14 19:56:00
2:37 PM,33.8,28.4,81,30.34,-9999.0,NNW,10.4,-,N/A,,Overcast,340,2013-01-14 20:37:00
2:56 PM,34.0,29.1,82,30.40,-9999.0,NNW,12.7,17.3,N/A,,Overcast,330,2013-01-14 20:56:00
3:56 PM,32.9,28.0,82,30.39,-9999.0,North,11.5,-,0.00,Rain,Light Rain,360,2013-01-14 21:56:00
4:56 PM,32.0,27.1,82,30.39,-9999.0,North,11.5,-,0.00,,Overcast,10,2013-01-14 22:56:00
5:17 PM,30.2,28.4,93,30.36,-9999.0,NNE,9.2,-,0.01,Rain,Freezing Rain,30,2013-01-14 23:17:00
5:34 PM,30.2,28.4,93,30.36,-9999.0,NE,6.9,-,0.04,Rain,Freezing Rain,50,2013-01-14 23:34:00
5:46 PM,30.2,28.4,93,30.36,-9999.0,ENE,6.9,-,0.08,Rain,Freezing Rain,70,2013-01-14 23:46:00
5:56 PM,31.1,30.0,96,30.40,-9999.0,East,8.1,-,0.10,Rain,Freezing Rain,80,2013-01-14 23:56:00
6:04 PM,30.2,28.4,93,30.35,-9999.0,NE,8.1,-,0.01,Rain,Freezing Rain,50,2013-01-15 00:04:00
6:09 PM,30.2,28.4,93,30.35,-9999.0,ENE,6.9,-,0.01,Rain,Freezing Rain,60,2013-01-15 00:09:00
6:37 PM,30.2,30.2,100,30.32,-9999.0,East,9.2,-,0.02,,Overcast,90,2013-01-15 00:37:00
6:56 PM,31.1,30.0,96,30.36,-9999.0,NNE,5.8,-,0.02,,Overcast,30,2013-01-15 00:56:00
7:56 PM,31.1,31.1,100,30.36,-9999.0,North,4.6,-,0.00,,Overcast,10,2013-01-15 01:56:00
8:31 PM,30.2,30.2,100,30.30,-9999.0,North,6.9,-,0.01,,Overcast,360,2013-01-15 02:31:00
8:56 PM,31.1,31.1,100,30.32,-9999.0,North,6.9,-,0.01,,Overcast,360,2013-01-15 02:56:00
9:56 PM,31.1,31.1,100,30.29,-9999.0,NE,6.9,-,0.00,,Overcast,40,2013-01-15 03:56:00
10:56 PM,31.1,31.1,100,30.29,-9999.0,Calm,Calm,-,N/A,,Overcast,0,2013-01-15 04:56:00
11:56 PM,32.0,32.0,100,30.27,-9999.0,North,5.8,-,N/A,,Overcast,10,2013-01-15 05:56:00